Terminal Aerodrome Forecast
Issued by NWS

Home | Current Version | Previous Version | Graphics & Text | Print | Product List | Glossary On
Versions: 1 2 3 4 5 6 7 8 9 10 11 12 13 14 15 16
762
FTUS43 KICT 181722
TAFSLN
TAF
KSLN 181722Z 1818/1918 VRB04KT P6SM SKC
     FM190000 17006KT P6SM SKC
      TEMPO 1913/1917 5SM BR BKN010
     FM191700 17012KT P6SM BKN016=

USA.gov is the U.S. government's official web portal to all federal, state and local government web resources and services.